sensor_id;sensor_type;location;lat;lon;timestamp;P1;durP1;ratioP1;P2;durP2;ratioP2
50219;SDS011;36110;51.536;7.562;2022-08-05T00:00:45;3.00;;;1.92;;
50219;SDS011;36110;51.536;7.562;2022-08-05T00:03:10;2.30;;;1.75;;
50219;SDS011;36110;51.536;7.562;2022-08-05T00:05:35;6.00;;;2.15;;
50219;SDS011;36110;51.536;7.562;2022-08-05T00:08:01;4.15;;;1.90;;
50219;SDS011;36110;51.536;7.562;2022-08-05T00:10:26;1.90;;;1.30;;
50219;SDS011;36110;51.536;7.562;2022-08-05T00:12:51;3.33;;;1.50;;
50219;SDS011;36110;51.536;7.562;2022-08-05T00:15:17;5.00;;;2.00;;
50219;SDS011;36110;51.536;7.562;2022-08-05T00:17:42;3.17;;;1.80;;
50219;SDS011;36110;51.536;7.562;2022-08-05T00:20:07;1.20;;;1.10;;
50219;SDS011;36110;51.536;7.562;2022-08-05T00:22:33;4.90;;;1.70;;
50219;SDS011;36110;51.536;7.562;2022-08-05T00:25:00;9.85;;;2.67;;
50219;SDS011;36110;51.536;7.562;2022-08-05T00:27:25;6.43;;;2.08;;
50219;SDS011;36110;51.536;7.562;2022-08-05T00:29:52;1.58;;;1.42;;
50219;SDS011;36110;51.536;7.562;2022-08-05T00:32:17;4.30;;;2.05;;
50219;SDS011;36110;51.536;7.562;2022-08-05T00:34:43;9.65;;;2.20;;
50219;SDS011;36110;51.536;7.562;2022-08-05T00:37:08;5.68;;;2.15;;
50219;SDS011;36110;51.536;7.562;2022-08-05T00:39:34;7.35;;;2.20;;
50219;SDS011;36110;51.536;7.562;2022-08-05T00:41:59;1.20;;;1.13;;
50219;SDS011;36110;51.536;7.562;2022-08-05T00:44:24;3.83;;;1.58;;
50219;SDS011;36110;51.536;7.562;2022-08-05T00:46:50;5.70;;;2.55;;
50219;SDS011;36110;51.536;7.562;2022-08-05T00:49:15;4.25;;;1.95;;
50219;SDS011;36110;51.536;7.562;2022-08-05T00:51:43;1.00;;;1.00;;
50219;SDS011;36110;51.536;7.562;2022-08-05T00:54:10;1.67;;;1.40;;
50219;SDS011;36110;51.536;7.562;2022-08-05T00:56:36;2.00;;;1.58;;
50219;SDS011;36110;51.536;7.562;2022-08-05T00:59:01;1.45;;;1.15;;
50219;SDS011;36110;51.536;7.562;2022-08-05T01:01:27;1.55;;;1.23;;
50219;SDS011;36110;51.536;7.562;2022-08-05T01:03:52;1.65;;;1.33;;
50219;SDS011;36110;51.536;7.562;2022-08-05T01:06:18;1.30;;;1.20;;
50219;SDS011;36110;51.536;7.562;2022-08-05T01:08:43;1.15;;;1.10;;
50219;SDS011;36110;51.536;7.562;2022-08-05T01:11:13;1.15;;;1.10;;
50219;SDS011;36110;51.536;7.562;2022-08-05T01:13:51;1.40;;;1.17;;
50219;SDS011;36110;51.536;7.562;2022-08-05T01:19:40;0.90;;;0.90;;
50219;SDS011;36110;51.536;7.562;2022-08-05T01:25:16;1.20;;;1.10;;
50219;SDS011;36110;51.536;7.562;2022-08-05T01:28:12;1.02;;;1.00;;
50219;SDS011;36110;51.536;7.562;2022-08-05T01:30:45;1.08;;;1.08;;
50219;SDS011;36110;51.536;7.562;2022-08-05T01:33:13;0.90;;;0.90;;
50219;SDS011;36110;51.536;7.562;2022-08-05T01:35:39;0.93;;;0.93;;
50219;SDS011;36110;51.536;7.562;2022-08-05T01:38:05;1.10;;;1.00;;
50219;SDS011;36110;51.536;7.562;2022-08-05T01:40:32;1.05;;;1.05;;
50219;SDS011;36110;51.536;7.562;2022-08-05T01:42:57;0.93;;;0.90;;
50219;SDS011;36110;51.536;7.562;2022-08-05T01:45:25;3.70;;;1.85;;
50219;SDS011;36110;51.536;7.562;2022-08-05T01:47:52;1.05;;;1.05;;
50219;SDS011;36110;51.536;7.562;2022-08-05T01:50:29;1.00;;;1.00;;
50219;SDS011;36110;51.536;7.562;2022-08-05T01:52:57;2.15;;;1.13;;
50219;SDS011;36110;51.536;7.562;2022-08-05T01:55:24;1.08;;;0.98;;
50219;SDS011;36110;51.536;7.562;2022-08-05T01:57:52;1.05;;;1.00;;
50219;SDS011;36110;51.536;7.562;2022-08-05T02:00:19;1.10;;;1.10;;
50219;SDS011;36110;51.536;7.562;2022-08-05T02:02:51;0.80;;;0.80;;
50219;SDS011;36110;51.536;7.562;2022-08-05T02:05:19;1.27;;;1.13;;
50219;SDS011;36110;51.536;7.562;2022-08-05T02:07:47;2.95;;;1.40;;
50219;SDS011;36110;51.536;7.562;2022-08-05T02:10:13;1.30;;;1.20;;
50219;SDS011;36110;51.536;7.562;2022-08-05T02:12:43;1.27;;;1.10;;
50219;SDS011;36110;51.536;7.562;2022-08-05T02:15:21;1.42;;;1.17;;
50219;SDS011;36110;51.536;7.562;2022-08-05T02:20:43;4.25;;;2.08;;
50219;SDS011;36110;51.536;7.562;2022-08-05T02:23:11;5.43;;;2.00;;
50219;SDS011;36110;51.536;7.562;2022-08-05T02:25:38;2.00;;;1.80;;
50219;SDS011;36110;51.536;7.562;2022-08-05T02:28:05;3.22;;;1.80;;
50219;SDS011;36110;51.536;7.562;2022-08-05T02:30:35;4.20;;;1.75;;
50219;SDS011;36110;51.536;7.562;2022-08-05T02:33:04;1.00;;;1.00;;
50219;SDS011;36110;51.536;7.562;2022-08-05T02:35:31;4.38;;;1.58;;
50219;SDS011;36110;51.536;7.562;2022-08-05T02:37:57;3.67;;;1.45;;
50219;SDS011;36110;51.536;7.562;2022-08-05T02:40:23;4.72;;;2.03;;
50219;SDS011;36110;51.536;7.562;2022-08-05T02:42:49;1.23;;;1.13;;
50219;SDS011;36110;51.536;7.562;2022-08-05T02:45:15;0.90;;;0.90;;
50219;SDS011;36110;51.536;7.562;2022-08-05T02:47:42;2.35;;;1.20;;
50219;SDS011;36110;51.536;7.562;2022-08-05T02:50:09;5.10;;;2.35;;
50219;SDS011;36110;51.536;7.562;2022-08-05T02:52:35;1.05;;;1.00;;
50219;SDS011;36110;51.536;7.562;2022-08-05T02:55:01;2.83;;;1.83;;
50219;SDS011;36110;51.536;7.562;2022-08-05T02:57:27;2.92;;;1.95;;
50219;SDS011;36110;51.536;7.562;2022-08-05T02:59:53;2.08;;;1.60;;
50219;SDS011;36110;51.536;7.562;2022-08-05T03:02:23;5.82;;;2.47;;
50219;SDS011;36110;51.536;7.562;2022-08-05T03:04:53;6.93;;;3.08;;
50219;SDS011;36110;51.536;7.562;2022-08-05T03:07:19;1.67;;;1.23;;
50219;SDS011;36110;51.536;7.562;2022-08-05T03:09:45;2.67;;;1.20;;
50219;SDS011;36110;51.536;7.562;2022-08-05T03:12:27;1.23;;;1.17;;
50219;SDS011;36110;51.536;7.562;2022-08-05T03:17:21;2.53;;;1.52;;
50219;SDS011;36110;51.536;7.562;2022-08-05T03:19:47;4.40;;;2.83;;
50219;SDS011;36110;51.536;7.562;2022-08-05T03:22:12;1.00;;;1.00;;
50219;SDS011;36110;51.536;7.562;2022-08-05T03:24:38;7.65;;;3.22;;
50219;SDS011;36110;51.536;7.562;2022-08-05T03:27:04;5.55;;;3.10;;
50219;SDS011;36110;51.536;7.562;2022-08-05T03:29:29;3.38;;;2.45;;
50219;SDS011;36110;51.536;7.562;2022-08-05T03:31:55;0.80;;;0.80;;
50219;SDS011;36110;51.536;7.562;2022-08-05T03:34:20;1.20;;;1.10;;
50219;SDS011;36110;51.536;7.562;2022-08-05T03:36:45;1.50;;;1.40;;
50219;SDS011;36110;51.536;7.562;2022-08-05T03:39:11;1.00;;;1.00;;
50219;SDS011;36110;51.536;7.562;2022-08-05T03:41:36;1.02;;;1.02;;
50219;SDS011;36110;51.536;7.562;2022-08-05T03:44:02;1.20;;;1.10;;
50219;SDS011;36110;51.536;7.562;2022-08-05T03:46:27;3.22;;;1.88;;
50219;SDS011;36110;51.536;7.562;2022-08-05T03:48:53;5.38;;;3.53;;
50219;SDS011;36110;51.536;7.562;2022-08-05T03:51:23;7.93;;;4.20;;
50219;SDS011;36110;51.536;7.562;2022-08-05T03:56:44;11.85;;;5.00;;
50219;SDS011;36110;51.536;7.562;2022-08-05T03:59:15;5.97;;;3.38;;
50219;SDS011;36110;51.536;7.562;2022-08-05T04:01:43;1.55;;;1.20;;
50219;SDS011;36110;51.536;7.562;2022-08-05T04:04:11;6.18;;;1.30;;
50219;SDS011;36110;51.536;7.562;2022-08-05T04:06:37;12.73;;;6.40;;
50219;SDS011;36110;51.536;7.562;2022-08-05T04:09:03;15.10;;;6.88;;
50219;SDS011;36110;51.536;7.562;2022-08-05T04:11:32;12.82;;;6.53;;
50219;SDS011;36110;51.536;7.562;2022-08-05T04:13:59;3.83;;;2.10;;
50219;SDS011;36110;51.536;7.562;2022-08-05T04:16:24;2.20;;;1.83;;
50219;SDS011;36110;51.536;7.562;2022-08-05T04:18:50;1.35;;;1.20;;
50219;SDS011;36110;51.536;7.562;2022-08-05T04:21:16;9.23;;;4.82;;
50219;SDS011;36110;51.536;7.562;2022-08-05T04:23:41;1.27;;;1.10;;
50219;SDS011;36110;51.536;7.562;2022-08-05T04:26:07;1.25;;;1.15;;
50219;SDS011;36110;51.536;7.562;2022-08-05T04:28:33;1.40;;;1.20;;
50219;SDS011;36110;51.536;7.562;2022-08-05T04:30:58;5.88;;;3.78;;
50219;SDS011;36110;51.536;7.562;2022-08-05T04:33:24;1.35;;;1.00;;
50219;SDS011;36110;51.536;7.562;2022-08-05T04:35:49;1.80;;;1.13;;
50219;SDS011;36110;51.536;7.562;2022-08-05T04:38:15;3.67;;;2.63;;
50219;SDS011;36110;51.536;7.562;2022-08-05T04:40:40;0.98;;;0.98;;
50219;SDS011;36110;51.536;7.562;2022-08-05T04:43:08;0.95;;;0.95;;
50219;SDS011;36110;51.536;7.562;2022-08-05T04:45:33;1.15;;;1.10;;
50219;SDS011;36110;51.536;7.562;2022-08-05T04:48:09;2.17;;;1.70;;
50219;SDS011;36110;51.536;7.562;2022-08-05T04:53:04;1.00;;;1.00;;
50219;SDS011;36110;51.536;7.562;2022-08-05T04:55:30;2.00;;;1.02;;
50219;SDS011;36110;51.536;7.562;2022-08-05T04:57:55;0.93;;;0.90;;
50219;SDS011;36110;51.536;7.562;2022-08-05T05:00:20;1.55;;;1.30;;
50219;SDS011;36110;51.536;7.562;2022-08-05T05:02:46;0.93;;;0.93;;
50219;SDS011;36110;51.536;7.562;2022-08-05T05:05:11;6.95;;;4.65;;
50219;SDS011;36110;51.536;7.562;2022-08-05T05:07:36;10.02;;;6.75;;
50219;SDS011;36110;51.536;7.562;2022-08-05T05:10:02;6.95;;;4.45;;
50219;SDS011;36110;51.536;7.562;2022-08-05T05:12:29;8.70;;;4.45;;
50219;SDS011;36110;51.536;7.562;2022-08-05T05:14:54;8.35;;;4.80;;
50219;SDS011;36110;51.536;7.562;2022-08-05T05:17:19;1.33;;;1.23;;
50219;SDS011;36110;51.536;7.562;2022-08-05T05:19:45;4.32;;;2.95;;
50219;SDS011;36110;51.536;7.562;2022-08-05T05:22:11;1.20;;;1.20;;
50219;SDS011;36110;51.536;7.562;2022-08-05T05:24:36;2.05;;;1.95;;
50219;SDS011;36110;51.536;7.562;2022-08-05T05:27:02;1.20;;;1.10;;
50219;SDS011;36110;51.536;7.562;2022-08-05T05:29:27;5.43;;;3.92;;
50219;SDS011;36110;51.536;7.562;2022-08-05T05:31:52;11.80;;;7.10;;
50219;SDS011;36110;51.536;7.562;2022-08-05T05:34:18;8.95;;;5.80;;
50219;SDS011;36110;51.536;7.562;2022-08-05T05:36:43;9.13;;;6.93;;
50219;SDS011;36110;51.536;7.562;2022-08-05T05:39:09;8.25;;;4.85;;
50219;SDS011;36110;51.536;7.562;2022-08-05T05:41:34;7.40;;;4.55;;
50219;SDS011;36110;51.536;7.562;2022-08-05T05:43:59;18.90;;;11.30;;
50219;SDS011;36110;51.536;7.562;2022-08-05T05:46:25;15.05;;;8.70;;
50219;SDS011;36110;51.536;7.562;2022-08-05T05:48:50;9.80;;;6.80;;
50219;SDS011;36110;51.536;7.562;2022-08-05T05:51:19;12.90;;;6.28;;
50219;SDS011;36110;51.536;7.562;2022-08-05T05:53:49;21.15;;;15.00;;
50219;SDS011;36110;51.536;7.562;2022-08-05T05:56:15;21.25;;;16.05;;
50219;SDS011;36110;51.536;7.562;2022-08-05T05:58:41;15.73;;;10.52;;
50219;SDS011;36110;51.536;7.562;2022-08-05T06:01:06;20.92;;;15.80;;
50219;SDS011;36110;51.536;7.562;2022-08-05T06:03:31;24.25;;;16.40;;
50219;SDS011;36110;51.536;7.562;2022-08-05T06:05:57;18.88;;;14.15;;
50219;SDS011;36110;51.536;7.562;2022-08-05T06:08:22;17.38;;;12.40;;
50219;SDS011;36110;51.536;7.562;2022-08-05T06:10:47;16.17;;;11.27;;
50219;SDS011;36110;51.536;7.562;2022-08-05T06:13:12;13.40;;;11.20;;
50219;SDS011;36110;51.536;7.562;2022-08-05T06:15:38;11.98;;;9.38;;
50219;SDS011;36110;51.536;7.562;2022-08-05T06:18:03;14.73;;;9.50;;
50219;SDS011;36110;51.536;7.562;2022-08-05T06:20:29;14.85;;;8.70;;
50219;SDS011;36110;51.536;7.562;2022-08-05T06:22:54;12.02;;;8.20;;
50219;SDS011;36110;51.536;7.562;2022-08-05T06:25:19;11.18;;;7.93;;
50219;SDS011;36110;51.536;7.562;2022-08-05T06:27:44;18.25;;;11.85;;
50219;SDS011;36110;51.536;7.562;2022-08-05T06:30:10;14.60;;;9.43;;
50219;SDS011;36110;51.536;7.562;2022-08-05T06:32:39;16.63;;;11.20;;
50219;SDS011;36110;51.536;7.562;2022-08-05T06:35:06;9.15;;;7.03;;
50219;SDS011;36110;51.536;7.562;2022-08-05T06:37:32;14.50;;;9.25;;
50219;SDS011;36110;51.536;7.562;2022-08-05T06:39:57;11.32;;;6.72;;
50219;SDS011;36110;51.536;7.562;2022-08-05T06:42:22;9.45;;;5.88;;
50219;SDS011;36110;51.536;7.562;2022-08-05T06:44:48;17.25;;;10.23;;
50219;SDS011;36110;51.536;7.562;2022-08-05T06:47:13;11.55;;;8.65;;
50219;SDS011;36110;51.536;7.562;2022-08-05T06:49:38;7.97;;;6.20;;
50219;SDS011;36110;51.536;7.562;2022-08-05T06:52:04;8.25;;;5.88;;
50219;SDS011;36110;51.536;7.562;2022-08-05T06:54:29;7.25;;;5.78;;
50219;SDS011;36110;51.536;7.562;2022-08-05T06:56:54;9.27;;;5.88;;
50219;SDS011;36110;51.536;7.562;2022-08-05T06:59:20;13.57;;;9.32;;
50219;SDS011;36110;51.536;7.562;2022-08-05T07:01:45;6.72;;;5.03;;
50219;SDS011;36110;51.536;7.562;2022-08-05T07:04:10;8.07;;;5.20;;
50219;SDS011;36110;51.536;7.562;2022-08-05T07:06:36;6.65;;;4.93;;
50219;SDS011;36110;51.536;7.562;2022-08-05T07:09:02;12.60;;;9.80;;
50219;SDS011;36110;51.536;7.562;2022-08-05T07:11:27;9.90;;;6.70;;
50219;SDS011;36110;51.536;7.562;2022-08-05T07:13:54;9.48;;;6.75;;
50219;SDS011;36110;51.536;7.562;2022-08-05T07:16:39;6.57;;;4.90;;
50219;SDS011;36110;51.536;7.562;2022-08-05T07:19:13;9.27;;;5.18;;
50219;SDS011;36110;51.536;7.562;2022-08-05T07:21:43;13.20;;;10.32;;
50219;SDS011;36110;51.536;7.562;2022-08-05T07:24:11;14.05;;;10.40;;
50219;SDS011;36110;51.536;7.562;2022-08-05T07:26:37;14.48;;;10.95;;
50219;SDS011;36110;51.536;7.562;2022-08-05T07:29:02;8.73;;;7.35;;
50219;SDS011;36110;51.536;7.562;2022-08-05T07:31:27;10.35;;;7.03;;
50219;SDS011;36110;51.536;7.562;2022-08-05T07:33:53;13.40;;;9.80;;
50219;SDS011;36110;51.536;7.562;2022-08-05T07:36:18;10.25;;;7.68;;
50219;SDS011;36110;51.536;7.562;2022-08-05T07:38:44;12.05;;;10.07;;
50219;SDS011;36110;51.536;7.562;2022-08-05T07:41:10;12.73;;;8.80;;
50219;SDS011;36110;51.536;7.562;2022-08-05T07:43:41;6.43;;;4.00;;
50219;SDS011;36110;51.536;7.562;2022-08-05T07:46:06;13.73;;;12.35;;
50219;SDS011;36110;51.536;7.562;2022-08-05T07:48:32;13.85;;;9.30;;
50219;SDS011;36110;51.536;7.562;2022-08-05T07:50:58;9.20;;;7.88;;
50219;SDS011;36110;51.536;7.562;2022-08-05T07:53:23;4.65;;;4.18;;
50219;SDS011;36110;51.536;7.562;2022-08-05T07:55:49;10.10;;;6.88;;
50219;SDS011;36110;51.536;7.562;2022-08-05T07:58:14;5.57;;;5.05;;
50219;SDS011;36110;51.536;7.562;2022-08-05T08:00:40;10.85;;;6.30;;
50219;SDS011;36110;51.536;7.562;2022-08-05T08:03:09;9.30;;;7.30;;
50219;SDS011;36110;51.536;7.562;2022-08-05T08:05:38;10.13;;;8.40;;
50219;SDS011;36110;51.536;7.562;2022-08-05T08:08:07;11.98;;;9.07;;
50219;SDS011;36110;51.536;7.562;2022-08-05T08:10:33;6.25;;;5.47;;
50219;SDS011;36110;51.536;7.562;2022-08-05T08:12:58;11.52;;;7.35;;
50219;SDS011;36110;51.536;7.562;2022-08-05T08:15:23;6.13;;;4.90;;
50219;SDS011;36110;51.536;7.562;2022-08-05T08:17:48;6.00;;;4.25;;
50219;SDS011;36110;51.536;7.562;2022-08-05T08:20:14;8.05;;;5.07;;
50219;SDS011;36110;51.536;7.562;2022-08-05T08:22:39;4.53;;;3.90;;
50219;SDS011;36110;51.536;7.562;2022-08-05T08:25:05;5.57;;;4.00;;
50219;SDS011;36110;51.536;7.562;2022-08-05T08:27:31;6.13;;;4.40;;
50219;SDS011;36110;51.536;7.562;2022-08-05T08:29:56;10.00;;;5.00;;
50219;SDS011;36110;51.536;7.562;2022-08-05T08:32:21;6.32;;;4.15;;
50219;SDS011;36110;51.536;7.562;2022-08-05T08:34:47;9.18;;;4.82;;
50219;SDS011;36110;51.536;7.562;2022-08-05T08:37:12;8.90;;;5.00;;
50219;SDS011;36110;51.536;7.562;2022-08-05T08:39:38;7.78;;;5.10;;
50219;SDS011;36110;51.536;7.562;2022-08-05T08:42:03;4.65;;;3.63;;
50219;SDS011;36110;51.536;7.562;2022-08-05T08:44:30;7.95;;;4.72;;
50219;SDS011;36110;51.536;7.562;2022-08-05T08:46:56;4.38;;;3.60;;
50219;SDS011;36110;51.536;7.562;2022-08-05T08:49:23;8.07;;;4.80;;
50219;SDS011;36110;51.536;7.562;2022-08-05T08:51:53;7.57;;;4.38;;
50219;SDS011;36110;51.536;7.562;2022-08-05T08:54:23;4.50;;;3.92;;
50219;SDS011;36110;51.536;7.562;2022-08-05T08:56:49;7.05;;;4.20;;
50219;SDS011;36110;51.536;7.562;2022-08-05T08:59:16;4.40;;;3.28;;
50219;SDS011;36110;51.536;7.562;2022-08-05T09:01:42;6.78;;;4.32;;
50219;SDS011;36110;51.536;7.562;2022-08-05T09:04:09;6.00;;;4.63;;
50219;SDS011;36110;51.536;7.562;2022-08-05T09:06:35;10.35;;;5.20;;
50219;SDS011;36110;51.536;7.562;2022-08-05T09:09:00;4.15;;;3.47;;
50219;SDS011;36110;51.536;7.562;2022-08-05T09:11:26;8.90;;;5.05;;
50219;SDS011;36110;51.536;7.562;2022-08-05T09:13:51;7.22;;;4.53;;
50219;SDS011;36110;51.536;7.562;2022-08-05T09:16:18;9.80;;;5.22;;
50219;SDS011;36110;51.536;7.562;2022-08-05T09:18:43;3.78;;;3.35;;
50219;SDS011;36110;51.536;7.562;2022-08-05T09:21:08;6.47;;;4.63;;
50219;SDS011;36110;51.536;7.562;2022-08-05T09:23:34;9.52;;;5.15;;
50219;SDS011;36110;51.536;7.562;2022-08-05T09:26:05;5.65;;;3.58;;
50219;SDS011;36110;51.536;7.562;2022-08-05T09:28:32;5.03;;;3.92;;
50219;SDS011;36110;51.536;7.562;2022-08-05T09:31:08;4.72;;;3.03;;
50219;SDS011;36110;51.536;7.562;2022-08-05T09:33:48;5.53;;;3.22;;
50219;SDS011;36110;51.536;7.562;2022-08-05T09:36:15;4.20;;;2.95;;
50219;SDS011;36110;51.536;7.562;2022-08-05T09:38:57;4.38;;;3.13;;
50219;SDS011;36110;51.536;7.562;2022-08-05T09:41:32;4.43;;;3.53;;
50219;SDS011;36110;51.536;7.562;2022-08-05T09:43:57;4.72;;;3.88;;
50219;SDS011;36110;51.536;7.562;2022-08-05T09:46:29;4.03;;;2.85;;
50219;SDS011;36110;51.536;7.562;2022-08-05T09:48:56;3.88;;;2.95;;
50219;SDS011;36110;51.536;7.562;2022-08-05T09:51:38;4.30;;;3.10;;
50219;SDS011;36110;51.536;7.562;2022-08-05T09:54:05;5.72;;;3.38;;
50219;SDS011;36110;51.536;7.562;2022-08-05T09:56:33;5.13;;;3.08;;
50219;SDS011;36110;51.536;7.562;2022-08-05T10:01:27;2.75;;;2.55;;
50219;SDS011;36110;51.536;7.562;2022-08-05T10:04:00;6.82;;;3.28;;
50219;SDS011;36110;51.536;7.562;2022-08-05T10:06:30;5.70;;;3.17;;
50219;SDS011;36110;51.536;7.562;2022-08-05T10:09:12;7.43;;;3.70;;
50219;SDS011;36110;51.536;7.562;2022-08-05T10:11:39;4.13;;;3.47;;
50219;SDS011;36110;51.536;7.562;2022-08-05T10:16:52;3.17;;;2.72;;
50219;SDS011;36110;51.536;7.562;2022-08-05T10:19:24;3.38;;;3.00;;
50219;SDS011;36110;51.536;7.562;2022-08-05T10:21:50;5.82;;;2.95;;
50219;SDS011;36110;51.536;7.562;2022-08-05T10:24:16;6.07;;;2.92;;
50219;SDS011;36110;51.536;7.562;2022-08-05T10:26:43;3.00;;;2.80;;
50219;SDS011;36110;51.536;7.562;2022-08-05T10:29:10;3.85;;;2.83;;
50219;SDS011;36110;51.536;7.562;2022-08-05T10:31:36;3.30;;;3.00;;
50219;SDS011;36110;51.536;7.562;2022-08-05T10:34:04;6.07;;;3.40;;
50219;SDS011;36110;51.536;7.562;2022-08-05T10:36:31;5.28;;;2.92;;
50219;SDS011;36110;51.536;7.562;2022-08-05T10:39:02;3.65;;;2.80;;
50219;SDS011;36110;51.536;7.562;2022-08-05T10:41:31;5.82;;;2.92;;
50219;SDS011;36110;51.536;7.562;2022-08-05T10:44:08;6.30;;;3.00;;
50219;SDS011;36110;51.536;7.562;2022-08-05T10:46:49;3.03;;;2.72;;
50219;SDS011;36110;51.536;7.562;2022-08-05T10:51:48;6.15;;;3.30;;
50219;SDS011;36110;51.536;7.562;2022-08-05T10:54:15;7.20;;;2.92;;
50219;SDS011;36110;51.536;7.562;2022-08-05T10:56:45;3.67;;;2.90;;
50219;SDS011;36110;51.536;7.562;2022-08-05T10:59:15;4.13;;;2.70;;
50219;SDS011;36110;51.536;7.562;2022-08-05T11:02:05;5.80;;;3.20;;
50219;SDS011;36110;51.536;7.562;2022-08-05T11:04:32;4.28;;;2.97;;
50219;SDS011;36110;51.536;7.562;2022-08-05T11:07:07;6.80;;;3.35;;
50219;SDS011;36110;51.536;7.562;2022-08-05T11:09:36;3.85;;;2.67;;
50219;SDS011;36110;51.536;7.562;2022-08-05T11:15:16;2.92;;;2.63;;
50219;SDS011;36110;51.536;7.562;2022-08-05T11:17:44;4.07;;;2.75;;
50219;SDS011;36110;51.536;7.562;2022-08-05T11:26:09;4.82;;;3.47;;
50219;SDS011;36110;51.536;7.562;2022-08-05T11:28:42;2.63;;;2.42;;
50219;SDS011;36110;51.536;7.562;2022-08-05T11:33:34;3.07;;;2.77;;
50219;SDS011;36110;51.536;7.562;2022-08-05T11:36:02;7.32;;;4.88;;
50219;SDS011;36110;51.536;7.562;2022-08-05T11:46:24;4.97;;;3.53;;
50219;SDS011;36110;51.536;7.562;2022-08-05T11:49:12;3.67;;;2.60;;
50219;SDS011;36110;51.536;7.562;2022-08-05T11:51:42;4.03;;;2.50;;
50219;SDS011;36110;51.536;7.562;2022-08-05T11:54:09;4.97;;;2.88;;
50219;SDS011;36110;51.536;7.562;2022-08-05T11:56:42;5.63;;;2.40;;
50219;SDS011;36110;51.536;7.562;2022-08-05T11:59:11;2.70;;;1.75;;
50219;SDS011;36110;51.536;7.562;2022-08-05T12:01:37;2.95;;;2.03;;
50219;SDS011;36110;51.536;7.562;2022-08-05T12:04:16;3.85;;;2.40;;
50219;SDS011;36110;51.536;7.562;2022-08-05T12:06:41;3.33;;;2.00;;
50219;SDS011;36110;51.536;7.562;2022-08-05T12:09:07;4.28;;;1.80;;
50219;SDS011;36110;51.536;7.562;2022-08-05T12:11:32;4.18;;;2.10;;
50219;SDS011;36110;51.536;7.562;2022-08-05T12:14:02;4.45;;;2.40;;
50219;SDS011;36110;51.536;7.562;2022-08-05T12:16:31;2.90;;;1.80;;
50219;SDS011;36110;51.536;7.562;2022-08-05T12:18:58;5.20;;;1.98;;
50219;SDS011;36110;51.536;7.562;2022-08-05T12:21:33;6.50;;;1.83;;
50219;SDS011;36110;51.536;7.562;2022-08-05T12:29:00;5.22;;;2.00;;
50219;SDS011;36110;51.536;7.562;2022-08-05T12:31:25;5.72;;;2.70;;
50219;SDS011;36110;51.536;7.562;2022-08-05T12:33:51;3.80;;;2.20;;
50219;SDS011;36110;51.536;7.562;2022-08-05T12:36:18;4.68;;;1.90;;
50219;SDS011;36110;51.536;7.562;2022-08-05T12:38:44;3.13;;;2.05;;
50219;SDS011;36110;51.536;7.562;2022-08-05T12:41:13;2.60;;;1.70;;
50219;SDS011;36110;51.536;7.562;2022-08-05T12:43:49;2.20;;;1.65;;
50219;SDS011;36110;51.536;7.562;2022-08-05T12:46:19;5.45;;;2.55;;
50219;SDS011;36110;51.536;7.562;2022-08-05T12:51:42;3.67;;;2.17;;
50219;SDS011;36110;51.536;7.562;2022-08-05T12:54:23;3.35;;;2.40;;
50219;SDS011;36110;51.536;7.562;2022-08-05T12:57:03;2.97;;;1.90;;
50219;SDS011;36110;51.536;7.562;2022-08-05T13:02:08;4.80;;;2.22;;
50219;SDS011;36110;51.536;7.562;2022-08-05T13:04:40;1.52;;;1.23;;
50219;SDS011;36110;51.536;7.562;2022-08-05T13:07:07;3.78;;;1.20;;
50219;SDS011;36110;51.536;7.562;2022-08-05T13:09:41;4.00;;;1.50;;
50219;SDS011;36110;51.536;7.562;2022-08-05T13:12:12;1.67;;;1.33;;
50219;SDS011;36110;51.536;7.562;2022-08-05T13:14:41;1.70;;;1.27;;
50219;SDS011;36110;51.536;7.562;2022-08-05T13:19:40;2.90;;;1.98;;
50219;SDS011;36110;51.536;7.562;2022-08-05T13:22:06;6.75;;;2.50;;
50219;SDS011;36110;51.536;7.562;2022-08-05T13:24:31;1.73;;;1.40;;
50219;SDS011;36110;51.536;7.562;2022-08-05T13:26:56;2.10;;;1.40;;
50219;SDS011;36110;51.536;7.562;2022-08-05T13:29:22;1.45;;;1.33;;
50219;SDS011;36110;51.536;7.562;2022-08-05T13:31:47;1.70;;;1.42;;
50219;SDS011;36110;51.536;7.562;2022-08-05T13:34:13;5.28;;;2.40;;
50219;SDS011;36110;51.536;7.562;2022-08-05T13:36:39;1.60;;;1.50;;
50219;SDS011;36110;51.536;7.562;2022-08-05T13:39:05;7.45;;;2.38;;
50219;SDS011;36110;51.536;7.562;2022-08-05T13:41:30;3.90;;;2.05;;
50219;SDS011;36110;51.536;7.562;2022-08-05T13:43:56;1.63;;;1.27;;
50219;SDS011;36110;51.536;7.562;2022-08-05T13:46:22;1.35;;;1.20;;
50219;SDS011;36110;51.536;7.562;2022-08-05T13:48:47;2.80;;;2.45;;
50219;SDS011;36110;51.536;7.562;2022-08-05T13:51:13;3.25;;;1.10;;
50219;SDS011;36110;51.536;7.562;2022-08-05T13:53:39;2.85;;;2.00;;
50219;SDS011;36110;51.536;7.562;2022-08-05T13:56:04;2.40;;;1.65;;
50219;SDS011;36110;51.536;7.562;2022-08-05T13:58:30;1.25;;;1.15;;
50219;SDS011;36110;51.536;7.562;2022-08-05T14:00:55;6.10;;;2.58;;
50219;SDS011;36110;51.536;7.562;2022-08-05T14:03:21;1.27;;;1.15;;
50219;SDS011;36110;51.536;7.562;2022-08-05T14:05:46;6.80;;;2.60;;
50219;SDS011;36110;51.536;7.562;2022-08-05T14:08:12;1.27;;;1.17;;
50219;SDS011;36110;51.536;7.562;2022-08-05T14:10:38;3.58;;;2.15;;
50219;SDS011;36110;51.536;7.562;2022-08-05T14:13:03;3.92;;;2.28;;
50219;SDS011;36110;51.536;7.562;2022-08-05T14:15:31;1.42;;;1.05;;
50219;SDS011;36110;51.536;7.562;2022-08-05T14:17:57;2.78;;;1.55;;
50219;SDS011;36110;51.536;7.562;2022-08-05T14:20:22;2.33;;;2.13;;
50219;SDS011;36110;51.536;7.562;2022-08-05T14:22:47;1.65;;;1.10;;
50219;SDS011;36110;51.536;7.562;2022-08-05T14:25:13;3.38;;;1.67;;
50219;SDS011;36110;51.536;7.562;2022-08-05T14:27:38;2.67;;;1.38;;
50219;SDS011;36110;51.536;7.562;2022-08-05T14:30:04;3.70;;;1.80;;
50219;SDS011;36110;51.536;7.562;2022-08-05T14:32:30;4.18;;;1.77;;
50219;SDS011;36110;51.536;7.562;2022-08-05T14:34:55;1.60;;;1.50;;
50219;SDS011;36110;51.536;7.562;2022-08-05T14:37:21;2.10;;;1.20;;
50219;SDS011;36110;51.536;7.562;2022-08-05T14:39:47;3.28;;;1.20;;
50219;SDS011;36110;51.536;7.562;2022-08-05T14:42:13;0.85;;;0.70;;
50219;SDS011;36110;51.536;7.562;2022-08-05T14:44:38;2.30;;;1.20;;
50219;SDS011;36110;51.536;7.562;2022-08-05T14:47:03;1.25;;;1.00;;
50219;SDS011;36110;51.536;7.562;2022-08-05T14:49:29;5.13;;;1.50;;
50219;SDS011;36110;51.536;7.562;2022-08-05T14:51:54;1.05;;;1.00;;
50219;SDS011;36110;51.536;7.562;2022-08-05T14:54:19;0.90;;;0.90;;
50219;SDS011;36110;51.536;7.562;2022-08-05T14:56:45;16.15;;;1.48;;
50219;SDS011;36110;51.536;7.562;2022-08-05T14:59:10;2.58;;;1.30;;
50219;SDS011;36110;51.536;7.562;2022-08-05T15:01:36;1.13;;;1.05;;
50219;SDS011;36110;51.536;7.562;2022-08-05T15:04:01;1.35;;;1.10;;
50219;SDS011;36110;51.536;7.562;2022-08-05T15:06:27;1.42;;;1.13;;
50219;SDS011;36110;51.536;7.562;2022-08-05T15:08:53;1.13;;;1.00;;
50219;SDS011;36110;51.536;7.562;2022-08-05T15:11:20;2.95;;;1.20;;
50219;SDS011;36110;51.536;7.562;2022-08-05T15:13:46;2.42;;;1.20;;
50219;SDS011;36110;51.536;7.562;2022-08-05T15:16:12;3.58;;;1.50;;
50219;SDS011;36110;51.536;7.562;2022-08-05T15:18:37;6.22;;;1.40;;
50219;SDS011;36110;51.536;7.562;2022-08-05T15:21:02;2.03;;;1.17;;
50219;SDS011;36110;51.536;7.562;2022-08-05T15:23:28;3.05;;;1.70;;
50219;SDS011;36110;51.536;7.562;2022-08-05T15:25:53;3.50;;;1.38;;
50219;SDS011;36110;51.536;7.562;2022-08-05T15:28:18;3.33;;;1.20;;
50219;SDS011;36110;51.536;7.562;2022-08-05T15:30:44;2.83;;;1.55;;
50219;SDS011;36110;51.536;7.562;2022-08-05T15:33:09;3.35;;;1.35;;
50219;SDS011;36110;51.536;7.562;2022-08-05T15:35:35;2.38;;;1.17;;
50219;SDS011;36110;51.536;7.562;2022-08-05T15:38:00;1.85;;;1.00;;
50219;SDS011;36110;51.536;7.562;2022-08-05T15:40:26;5.20;;;1.20;;
50219;SDS011;36110;51.536;7.562;2022-08-05T15:42:51;1.65;;;1.27;;